createdAt,value
2018-12-25T00:00:31.849Z,1031.25
2018-12-25T00:01:41.329Z,1031.26
2018-12-25T00:02:50.754Z,1031.26
2018-12-25T00:03:59.687Z,1031.27
2018-12-25T00:05:09.637Z,1031.29
2018-12-25T00:06:18.823Z,1031.29
2018-12-25T00:07:27.523Z,1031.33
2018-12-25T00:08:36.709Z,1031.27
2018-12-25T00:09:46.433Z,1031.29
2018-12-25T00:10:55.375Z,1031.26
2018-12-25T00:12:04.296Z,1031.31
2018-12-25T00:13:13.829Z,1031.28
2018-12-25T00:14:23.767Z,1031.25
2018-12-25T00:15:33.791Z,1031.19
2018-12-25T00:16:42.973Z,1031.21
2018-12-25T00:17:52.653Z,1031.17
2018-12-25T00:19:06.035Z,1031.19
2018-12-25T00:20:15.870Z,1031.19
2018-12-25T00:21:25.371Z,1031.25
2018-12-25T00:22:34.801Z,1031.22
2018-12-25T00:23:44.022Z,1031.23
2018-12-25T00:24:53.737Z,1031.26
2018-12-25T00:26:03.168Z,1031.21
2018-12-25T00:27:12.345Z,1031.24
2018-12-25T00:28:22.043Z,1031.27
2018-12-25T00:29:30.996Z,1031.3
2018-12-25T00:30:40.435Z,1031.32
2018-12-25T00:31:49.385Z,1031.33
2018-12-25T00:32:58.580Z,1031.29
2018-12-25T00:34:08.076Z,1031.31
2018-12-25T00:35:17.283Z,1031.28
2018-12-25T00:36:26.727Z,1031.32
2018-12-25T00:37:36.678Z,1031.33
2018-12-25T00:38:45.632Z,1031.35
2018-12-25T00:39:55.399Z,1031.28
2018-12-25T00:41:04.623Z,1031.26
2018-12-25T00:42:14.326Z,1031.21
2018-12-25T00:43:23.789Z,1031.21
2018-12-25T00:44:33.260Z,1031.14
2018-12-25T00:45:42.695Z,1031.11
2018-12-25T00:46:52.384Z,1031.05
2018-12-25T00:48:01.336Z,1031.01
2018-12-25T00:49:14.653Z,1031.01
2018-12-25T00:50:24.392Z,1030.95
2018-12-25T00:51:33.573Z,1030.94
2018-12-25T00:52:42.762Z,1030.92
2018-12-25T00:53:52.446Z,1030.91
2018-12-25T00:55:01.876Z,1030.88
2018-12-25T00:56:10.798Z,1030.9
2018-12-25T00:57:19.735Z,1030.88
2018-12-25T00:58:29.185Z,1030.89
2018-12-25T00:59:39.120Z,1030.89
2018-12-25T01:00:48.550Z,1030.85
2018-12-25T01:01:57.853Z,1030.87
2018-12-25T01:03:07.278Z,1030.86
2018-12-25T01:04:16.992Z,1030.92
2018-12-25T01:05:26.200Z,1030.91
2018-12-25T01:06:35.641Z,1030.94
2018-12-25T01:07:44.831Z,1030.98
2018-12-25T01:08:54.048Z,1030.94
2018-12-25T01:10:03.492Z,1030.95
2018-12-25T01:11:13.197Z,1030.93
2018-12-25T01:12:22.906Z,1030.93
2018-12-25T01:13:32.085Z,1030.92
2018-12-25T01:14:41.307Z,1030.94
2018-12-25T01:15:50.501Z,1030.96
2018-12-25T01:16:59.700Z,1031.01
2018-12-25T01:18:09.390Z,1031.04
2018-12-25T01:19:23.183Z,1031
2018-12-25T01:20:32.405Z,1031.05
2018-12-25T01:21:41.075Z,1031.03
2018-12-25T01:22:50.114Z,1031.11
2018-12-25T01:23:59.301Z,1031.13
2018-12-25T01:25:09.048Z,1031.12
2018-12-25T01:26:18.495Z,1031.12
2018-12-25T01:27:27.925Z,1031.07
2018-12-25T01:28:36.848Z,1031.08
2018-12-25T01:29:46.536Z,1031.09
2018-12-25T01:30:55.596Z,1031.09
2018-12-25T01:32:05.044Z,1031.05
2018-12-25T01:33:14.741Z,1031.09
2018-12-25T01:34:24.191Z,1031.09
2018-12-25T01:35:33.632Z,1031.07
2018-12-25T01:36:43.066Z,1031.09
2018-12-25T01:37:52.267Z,1031.1
2018-12-25T01:39:01.447Z,1031.17
2018-12-25T01:40:10.635Z,1031.18
2018-12-25T01:41:20.084Z,1031.17
2018-12-25T01:42:29.774Z,1031.2
2018-12-25T01:43:39.497Z,1031.21
2018-12-25T01:44:48.447Z,1031.18
2018-12-25T01:45:57.721Z,1031.17
2018-12-25T01:47:07.164Z,1031.18
2018-12-25T01:48:16.361Z,1031.19
2018-12-25T01:49:31.678Z,1031.21
2018-12-25T01:50:41.623Z,1031.25
2018-12-25T01:51:51.302Z,1031.29
2018-12-25T01:53:00.480Z,1031.35
2018-12-25T01:54:09.919Z,1031.36
2018-12-25T01:55:19.108Z,1031.35
2018-12-25T01:56:28.554Z,1031.38
2018-12-25T01:57:37.750Z,1031.39
2018-12-25T01:58:46.691Z,1031.39
2018-12-25T01:59:55.868Z,1031.41
2018-12-25T02:01:05.047Z,1031.39
2018-12-25T02:02:14.507Z,1031.36
2018-12-25T02:03:23.467Z,1031.39
2018-12-25T02:04:33.146Z,1031.44
2018-12-25T02:05:42.577Z,1031.44
2018-12-25T02:06:51.759Z,1031.42
2018-12-25T02:08:00.699Z,1031.41
2018-12-25T02:09:09.883Z,1031.4
2018-12-25T02:10:18.833Z,1031.38
2018-12-25T02:11:28.521Z,1031.36
2018-12-25T02:12:37.949Z,1031.35
2018-12-25T02:13:47.630Z,1031.4
2018-12-25T02:14:57.088Z,1031.43
2018-12-25T02:16:06.314Z,1031.42
2018-12-25T02:17:15.730Z,1031.44
2018-12-25T02:18:24.910Z,1031.36
2018-12-25T02:19:40.130Z,1031.39
2018-12-25T02:20:49.742Z,1031.41
2018-12-25T02:21:59.390Z,1031.44
2018-12-25T02:23:09.316Z,1031.41
2018-12-25T02:24:19.004Z,1031.37
2018-12-25T02:25:28.438Z,1031.37
2018-12-25T02:26:37.866Z,1031.43
2018-12-25T02:27:47.293Z,1031.42
2018-12-25T02:28:56.745Z,1031.41
2018-12-25T02:30:05.929Z,1031.46
2018-12-25T02:31:15.699Z,1031.41
2018-12-25T02:32:25.516Z,1031.41
2018-12-25T02:33:34.961Z,1031.4
2018-12-25T02:34:44.917Z,1031.41
2018-12-25T02:35:54.115Z,1031.42
2018-12-25T02:37:03.804Z,1031.42
2018-12-25T02:38:13.511Z,1031.4
2018-12-25T02:39:22.947Z,1031.45
2018-12-25T02:40:32.431Z,1031.45
2018-12-25T02:41:42.110Z,1031.45
2018-12-25T02:42:51.535Z,1031.4
2018-12-25T02:44:00.477Z,1031.34
2018-12-25T02:45:09.968Z,1031.33
2018-12-25T02:46:19.393Z,1031.38
2018-12-25T02:47:28.839Z,1031.33
2018-12-25T02:48:38.311Z,1031.33
2018-12-25T02:49:50.290Z,1031.33
2018-12-25T02:50:59.944Z,1031.37
2018-12-25T02:52:09.137Z,1031.35
2018-12-25T02:53:18.585Z,1031.34
2018-12-25T02:54:28.280Z,1031.35
2018-12-25T02:55:37.469Z,1031.35
2018-12-25T02:56:47.280Z,1031.33
2018-12-25T02:57:56.474Z,1031.31
2018-12-25T02:59:05.907Z,1031.29
2018-12-25T03:00:15.600Z,1031.31
2018-12-25T03:01:24.823Z,1031.34
2018-12-25T03:02:34.657Z,1031.37
2018-12-25T03:03:43.603Z,1031.34
2018-12-25T03:04:53.560Z,1031.34
2018-12-25T03:06:03.271Z,1031.3
2018-12-25T03:07:12.980Z,1031.23
2018-12-25T03:08:22.435Z,1031.28
2018-12-25T03:09:31.883Z,1031.3
2018-12-25T03:10:41.318Z,1031.25
2018-12-25T03:11:51.272Z,1031.27
2018-12-25T03:13:01.248Z,1031.3
2018-12-25T03:14:10.448Z,1031.28
2018-12-25T03:15:19.915Z,1031.26
2018-12-25T03:16:29.867Z,1031.29
2018-12-25T03:17:39.317Z,1031.28
2018-12-25T03:18:49.039Z,1031.3
2018-12-25T03:19:59.937Z,1031.23
2018-12-25T03:21:09.550Z,1031.24
2018-12-25T03:22:19.522Z,1031.27
2018-12-25T03:23:28.990Z,1031.21
2018-12-25T03:24:38.172Z,1031.21
2018-12-25T03:25:47.615Z,1031.2
2018-12-25T03:26:57.069Z,1031.16
2018-12-25T03:28:06.004Z,1031.13
2018-12-25T03:29:15.446Z,1031.15
2018-12-25T03:30:24.921Z,1031.18
2018-12-25T03:31:34.662Z,1031.2
2018-12-25T03:32:44.644Z,1031.13
2018-12-25T03:33:54.626Z,1031.1
2018-12-25T03:35:04.579Z,1031.13
2018-12-25T03:36:13.766Z,1031.09
2018-12-25T03:37:23.713Z,1031.11
2018-12-25T03:38:33.047Z,1031.11
2018-12-25T03:39:42.820Z,1031.11
2018-12-25T03:40:52.004Z,1031.11
2018-12-25T03:42:01.443Z,1031.11
2018-12-25T03:43:10.907Z,1031.08
2018-12-25T03:44:20.374Z,1031.07
2018-12-25T03:45:30.092Z,1031
2018-12-25T03:46:39.774Z,1031.03
2018-12-25T03:47:49.224Z,1031
2018-12-25T03:48:58.725Z,1031.04
2018-12-25T03:50:10.731Z,1031.03
2018-12-25T03:51:20.740Z,1031.02
2018-12-25T03:52:30.427Z,1031.01
2018-12-25T03:53:39.381Z,1030.99
2018-12-25T03:54:49.065Z,1030.96
2018-12-25T03:55:59.020Z,1030.96
2018-12-25T03:57:08.464Z,1030.96
2018-12-25T03:58:17.901Z,1030.94
2018-12-25T03:59:27.348Z,1030.94
2018-12-25T04:00:36.797Z,1030.97
2018-12-25T04:01:46.244Z,1030.92
2018-12-25T04:02:56.042Z,1030.9
2018-12-25T04:04:05.751Z,1030.9
2018-12-25T04:05:15.698Z,1030.93
2018-12-25T04:06:25.391Z,1030.95
2018-12-25T04:07:34.839Z,1030.89
2018-12-25T04:08:44.296Z,1030.93
2018-12-25T04:09:53.731Z,1030.93
2018-12-25T04:11:02.937Z,1030.95
2018-12-25T04:12:12.890Z,1030.96
2018-12-25T04:13:22.082Z,1030.99
2018-12-25T04:14:31.800Z,1030.95
2018-12-25T04:15:41.489Z,1030.96
2018-12-25T04:16:51.423Z,1030.93
2018-12-25T04:18:01.112Z,1030.92
2018-12-25T04:19:10.566Z,1030.91
2018-12-25T04:20:20.213Z,1030.92
2018-12-25T04:21:29.684Z,1030.93
2018-12-25T04:22:39.116Z,1030.93
2018-12-25T04:23:48.565Z,1030.92
2018-12-25T04:24:58.259Z,1030.91
2018-12-25T04:26:07.999Z,1030.87
2018-12-25T04:27:17.704Z,1030.9
2018-12-25T04:28:27.402Z,1030.9
2018-12-25T04:29:36.854Z,1030.86
2018-12-25T04:30:46.541Z,1030.86
2018-12-25T04:31:55.997Z,1030.89
2018-12-25T04:33:05.935Z,1030.89
2018-12-25T04:34:15.622Z,1030.86
2018-12-25T04:35:25.077Z,1030.87
2018-12-25T04:36:34.782Z,1030.86
2018-12-25T04:37:44.229Z,1030.86
2018-12-25T04:38:53.666Z,1030.84
2018-12-25T04:40:02.860Z,1030.82
2018-12-25T04:41:12.296Z,1030.78
2018-12-25T04:42:21.744Z,1030.78
2018-12-25T04:43:31.461Z,1030.82
2018-12-25T04:44:40.901Z,1030.75
2018-12-25T04:45:50.843Z,1030.76
2018-12-25T04:47:00.806Z,1030.77
2018-12-25T04:48:10.002Z,1030.75
2018-12-25T04:49:19.193Z,1030.79
2018-12-25T04:50:29.326Z,1030.81
2018-12-25T04:51:39.185Z,1030.79
2018-12-25T04:52:49.128Z,1030.81
2018-12-25T04:53:58.308Z,1030.79
2018-12-25T04:55:07.880Z,1030.79
2018-12-25T04:56:17.060Z,1030.79
2018-12-25T04:57:26.995Z,1030.79
2018-12-25T04:58:36.429Z,1030.79
2018-12-25T04:59:46.123Z,1030.84
2018-12-25T05:00:55.310Z,1030.85
2018-12-25T05:02:05.030Z,1030.87
2018-12-25T05:03:14.482Z,1030.85
2018-12-25T05:04:23.907Z,1030.89
2018-12-25T05:05:33.115Z,1030.91
2018-12-25T05:06:42.547Z,1030.85
2018-12-25T05:07:52.470Z,1030.89
2018-12-25T05:09:02.422Z,1030.88
2018-12-25T05:10:12.126Z,1030.89
2018-12-25T05:11:20.812Z,1030.88
2018-12-25T05:12:30.510Z,1030.85
2018-12-25T05:13:40.467Z,1030.85
2018-12-25T05:14:49.411Z,1030.86
2018-12-25T05:15:58.346Z,1030.88
2018-12-25T05:17:07.525Z,1030.87
2018-12-25T05:18:16.972Z,1030.86
2018-12-25T05:19:25.895Z,1030.86
2018-12-25T05:20:37.918Z,1030.82
2018-12-25T05:21:47.742Z,1030.78
2018-12-25T05:22:56.936Z,1030.78
2018-12-25T05:24:06.363Z,1030.73
2018-12-25T05:25:15.792Z,1030.76
2018-12-25T05:26:25.008Z,1030.76
2018-12-25T05:27:33.951Z,1030.8
2018-12-25T05:28:42.889Z,1030.82
2018-12-25T05:29:52.332Z,1030.8
2018-12-25T05:31:01.519Z,1030.82
2018-12-25T05:32:10.949Z,1030.81
2018-12-25T05:33:20.388Z,1030.81
2018-12-25T05:34:30.075Z,1030.8
2018-12-25T05:35:39.508Z,1030.79
2018-12-25T05:36:49.453Z,1030.77
2018-12-25T05:37:58.393Z,1030.82
2018-12-25T05:39:07.574Z,1030.85
2018-12-25T05:40:17.504Z,1030.86
2018-12-25T05:41:26.938Z,1030.8
2018-12-25T05:42:36.876Z,1030.8
2018-12-25T05:43:46.062Z,1030.8
2018-12-25T05:44:55.002Z,1030.8
2018-12-25T05:46:04.194Z,1030.81
2018-12-25T05:47:13.376Z,1030.82
2018-12-25T05:48:22.308Z,1030.81
2018-12-25T05:49:31.494Z,1030.82
2018-12-25T05:50:46.524Z,1030.82
2018-12-25T05:51:56.068Z,1030.85
2018-12-25T05:53:05.255Z,1030.8
2018-12-25T05:54:14.703Z,1030.81
2018-12-25T05:55:24.136Z,1030.86
2018-12-25T05:56:33.831Z,1030.86
2018-12-25T05:57:42.994Z,1030.89
2018-12-25T05:58:52.440Z,1030.92
2018-12-25T06:00:01.630Z,1030.94
2018-12-25T06:01:10.339Z,1030.91
2018-12-25T06:02:19.368Z,1030.96
2018-12-25T06:03:28.817Z,1030.92
2018-12-25T06:04:37.773Z,1030.95
2018-12-25T06:05:46.976Z,1030.95
2018-12-25T06:06:56.649Z,1030.98
2018-12-25T06:08:06.080Z,1031
2018-12-25T06:09:15.275Z,1031
2018-12-25T06:10:24.227Z,1030.96
2018-12-25T06:11:33.931Z,1030.99
2018-12-25T06:12:43.112Z,1031.04
2018-12-25T06:13:52.561Z,1031.09
2018-12-25T06:15:01.775Z,1031.11
2018-12-25T06:16:11.214Z,1031.02
2018-12-25T06:17:20.887Z,1031.02
2018-12-25T06:18:30.313Z,1031.04
2018-12-25T06:19:39.535Z,1031.02
2018-12-25T06:20:55.010Z,1031.02
2018-12-25T06:22:04.843Z,1031.04
2018-12-25T06:23:14.025Z,1031.07
2018-12-25T06:24:23.459Z,1031.08
2018-12-25T06:25:32.909Z,1031.11
2018-12-25T06:26:42.350Z,1031.09
2018-12-25T06:27:51.551Z,1031.1
2018-12-25T06:29:00.255Z,1031.08
2018-12-25T06:30:09.442Z,1031.04
2018-12-25T06:31:18.888Z,1031.09
2018-12-25T06:32:28.626Z,1031.08
2018-12-25T06:33:38.544Z,1031.09
2018-12-25T06:34:47.767Z,1031.09
2018-12-25T06:35:57.185Z,1031.1
2018-12-25T06:37:06.623Z,1031.04
2018-12-25T06:38:15.544Z,1031.05
2018-12-25T06:39:24.989Z,1031.04
2018-12-25T06:40:34.179Z,1031
2018-12-25T06:41:43.615Z,1030.98
2018-12-25T06:42:53.563Z,1030.95
2018-12-25T06:44:03.288Z,1030.94
2018-12-25T06:45:12.471Z,1030.94
2018-12-25T06:46:21.651Z,1030.95
2018-12-25T06:47:31.207Z,1030.94
2018-12-25T06:48:40.641Z,1030.96
2018-12-25T06:49:49.818Z,1030.94
2018-12-25T06:51:03.640Z,1030.96
2018-12-25T06:52:13.407Z,1030.93
2018-12-25T06:53:22.602Z,1030.91
2018-12-25T06:54:32.045Z,1030.9
2018-12-25T06:55:42.323Z,1030.9
2018-12-25T06:56:51.496Z,1030.89
2018-12-25T06:58:00.940Z,1030.88
2018-12-25T06:59:10.628Z,1030.84
2018-12-25T07:00:20.652Z,1030.87
2018-12-25T07:01:30.080Z,1030.9
2018-12-25T07:02:39.519Z,1030.88
2018-12-25T07:03:48.464Z,1030.9
2018-12-25T07:04:58.409Z,1030.88
2018-12-25T07:06:07.854Z,1030.85
2018-12-25T07:07:17.065Z,1030.84
2018-12-25T07:08:26.026Z,1030.85
2018-12-25T07:09:35.478Z,1030.86
2018-12-25T07:10:44.650Z,1030.86
2018-12-25T07:11:53.590Z,1030.86
2018-12-25T07:13:03.020Z,1030.88
2018-12-25T07:14:12.310Z,1030.93
2018-12-25T07:15:21.994Z,1030.92
2018-12-25T07:16:40.583Z,1030.9
2018-12-25T07:17:50.288Z,1030.91
2018-12-25T07:18:59.470Z,1030.86
2018-12-25T07:20:08.919Z,1030.89
2018-12-25T07:21:18.376Z,1030.86
2018-12-25T07:22:27.818Z,1030.88
2018-12-25T07:23:37.496Z,1030.89
2018-12-25T07:24:47.455Z,1030.94
2018-12-25T07:25:56.879Z,1030.91
2018-12-25T07:27:06.579Z,1030.88
2018-12-25T07:28:15.592Z,1030.89
2018-12-25T07:29:25.285Z,1030.85
2018-12-25T07:30:34.986Z,1030.87
2018-12-25T07:31:44.188Z,1030.85
2018-12-25T07:32:53.125Z,1030.88
2018-12-25T07:34:02.559Z,1030.89
2018-12-25T07:35:11.992Z,1030.87
2018-12-25T07:36:21.268Z,1030.84
2018-12-25T07:37:30.742Z,1030.86
2018-12-25T07:38:39.945Z,1030.83
2018-12-25T07:39:48.769Z,1030.82
2018-12-25T07:40:57.958Z,1030.83
2018-12-25T07:42:07.670Z,1030.82
2018-12-25T07:43:36.555Z,1030.79
2018-12-25T07:44:46.237Z,1030.74
2018-12-25T07:45:55.166Z,1030.73
2018-12-25T07:47:04.347Z,1030.72
2018-12-25T07:48:13.923Z,1030.74
2018-12-25T07:49:22.855Z,1030.7
2018-12-25T07:50:32.289Z,1030.72
2018-12-25T07:51:41.487Z,1030.7
2018-12-25T07:52:51.184Z,1030.7
2018-12-25T07:54:00.859Z,1030.72
2018-12-25T07:55:10.040Z,1030.7
2018-12-25T07:56:19.468Z,1030.7
2018-12-25T07:57:29.159Z,1030.69
2018-12-25T07:58:38.594Z,1030.74
2018-12-25T07:59:47.790Z,1030.72
2018-12-25T08:00:56.975Z,1030.78
2018-12-25T08:02:06.423Z,1030.78
2018-12-25T08:03:16.114Z,1030.8
2018-12-25T08:04:25.533Z,1030.74
2018-12-25T08:05:35.011Z,1030.75
2018-12-25T08:06:44.468Z,1030.76
2018-12-25T08:07:53.719Z,1030.75
2018-12-25T08:09:03.173Z,1030.7
2018-12-25T08:10:12.850Z,1030.7
2018-12-25T08:11:21.769Z,1030.74
2018-12-25T08:12:31.457Z,1030.73
2018-12-25T08:13:40.397Z,1030.77
2018-12-25T08:14:49.678Z,1030.8
2018-12-25T08:15:59.106Z,1030.75
2018-12-25T08:17:08.777Z,1030.76
2018-12-25T08:18:17.956Z,1030.76
2018-12-25T08:19:27.152Z,1030.78
2018-12-25T08:20:36.639Z,1030.8
2018-12-25T08:21:45.579Z,1030.83
2018-12-25T08:23:02.332Z,1030.81
2018-12-25T08:24:11.716Z,1030.77
2018-12-25T08:25:20.916Z,1030.75
2018-12-25T08:26:30.106Z,1030.79
2018-12-25T08:27:39.624Z,1030.75
2018-12-25T08:28:49.051Z,1030.72
2018-12-25T08:29:58.022Z,1030.71
2018-12-25T08:31:08.175Z,1030.74
2018-12-25T08:32:17.735Z,1030.79
2018-12-25T08:33:27.171Z,1030.81
2018-12-25T08:34:36.367Z,1030.82
2018-12-25T08:35:45.558Z,1030.84
2018-12-25T08:36:54.991Z,1030.8
2018-12-25T08:38:04.253Z,1030.8
2018-12-25T08:39:13.458Z,1030.84
2018-12-25T08:40:22.907Z,1030.81
2018-12-25T08:41:32.080Z,1030.8
2018-12-25T08:42:41.519Z,1030.84
2018-12-25T08:43:50.741Z,1030.81
2018-12-25T08:45:00.179Z,1030.84
2018-12-25T08:46:09.453Z,1030.82
2018-12-25T08:47:18.891Z,1030.82
2018-12-25T08:48:28.703Z,1030.85
2018-12-25T08:49:37.408Z,1030.84
2018-12-25T08:50:47.085Z,1030.81
2018-12-25T08:51:56.287Z,1030.85
2018-12-25T08:53:05.990Z,1030.88
2018-12-25T08:54:15.189Z,1030.88
2018-12-25T08:55:23.889Z,1030.91
2018-12-25T08:56:33.816Z,1030.92
2018-12-25T08:57:43.271Z,1030.92
2018-12-25T08:58:52.702Z,1030.94
2018-12-25T09:00:02.142Z,1030.96
2018-12-25T09:01:11.693Z,1030.97
2018-12-25T09:02:21.390Z,1031.01
2018-12-25T09:03:30.577Z,1031
2018-12-25T09:04:40.025Z,1031
2018-12-25T09:05:49.236Z,1030.94
2018-12-25T09:06:58.913Z,1030.93
2018-12-25T09:08:08.696Z,1030.98
2018-12-25T09:09:17.893Z,1030.94
2018-12-25T09:10:27.840Z,1030.92
2018-12-25T09:11:37.299Z,1030.89
2018-12-25T09:12:46.484Z,1030.9
2018-12-25T09:13:55.453Z,1030.89
2018-12-25T09:15:04.638Z,1030.88
2018-12-25T09:16:13.842Z,1030.87
2018-12-25T09:17:23.540Z,1030.87
2018-12-25T09:18:32.761Z,1030.9
2018-12-25T09:19:42.462Z,1030.89
2018-12-25T09:20:51.895Z,1030.94
2018-12-25T09:22:01.669Z,1030.91
2018-12-25T09:23:11.115Z,1030.92
2018-12-25T09:24:20.540Z,1030.95
2018-12-25T09:25:29.481Z,1030.92
2018-12-25T09:26:38.903Z,1030.99
2018-12-25T09:27:48.100Z,1031
2018-12-25T09:28:57.553Z,1030.99
2018-12-25T09:30:06.754Z,1031.03
2018-12-25T09:31:15.686Z,1030.99
2018-12-25T09:32:25.627Z,1031.05
2018-12-25T09:33:35.088Z,1031.03
2018-12-25T09:34:44.517Z,1031.08
2018-12-25T09:35:55.651Z,1031.11
2018-12-25T09:37:05.066Z,1031.12
2018-12-25T09:38:14.261Z,1031.12
2018-12-25T09:39:23.460Z,1031.14
2018-12-25T09:40:32.636Z,1031.14
2018-12-25T09:41:41.580Z,1031.18
2018-12-25T09:42:50.848Z,1031.17
2018-12-25T09:44:00.045Z,1031.19
2018-12-25T09:45:09.237Z,1031.21
2018-12-25T09:46:18.162Z,1031.22
2018-12-25T09:47:27.856Z,1031.21
2018-12-25T09:48:36.804Z,1031.19
2018-12-25T09:49:46.737Z,1031.14
2018-12-25T09:50:56.177Z,1031.17
2018-12-25T09:52:05.370Z,1031.15
2018-12-25T09:53:14.972Z,1031.14
2018-12-25T09:54:24.508Z,1031.09
2018-12-25T09:55:33.722Z,1031.14
2018-12-25T09:56:43.417Z,1031.17
2018-12-25T09:57:52.862Z,1031.16
2018-12-25T09:59:01.570Z,1031.14
2018-12-25T10:00:11.273Z,1031.15
2018-12-25T10:01:20.712Z,1031.15
2018-12-25T10:02:30.391Z,1031.13
2018-12-25T10:03:39.848Z,1031.11
2018-12-25T10:04:49.537Z,1031.11
2018-12-25T10:05:59.268Z,1031.09
2018-12-25T10:07:08.208Z,1031.12
2018-12-25T10:08:17.887Z,1031.08
2018-12-25T10:09:27.095Z,1031.08
2018-12-25T10:10:36.521Z,1031.06
2018-12-25T10:11:45.961Z,1031.06
2018-12-25T10:12:54.666Z,1031.08
2018-12-25T10:14:03.882Z,1031.03
2018-12-25T10:15:13.565Z,1030.99
2018-12-25T10:16:22.478Z,1031.01
2018-12-25T10:17:31.976Z,1030.95
2018-12-25T10:18:41.675Z,1030.95
2018-12-25T10:19:51.122Z,1030.96
2018-12-25T10:21:00.571Z,1030.96
2018-12-25T10:22:09.300Z,1030.95
2018-12-25T10:23:18.746Z,1030.93
2018-12-25T10:24:27.948Z,1030.94
2018-12-25T10:25:37.391Z,1030.97
2018-12-25T10:26:46.562Z,1030.97
2018-12-25T10:27:56.502Z,1030.93
2018-12-25T10:29:05.704Z,1030.88
2018-12-25T10:30:15.399Z,1030.87
2018-12-25T10:31:25.095Z,1030.86
2018-12-25T10:32:34.296Z,1030.87
2018-12-25T10:33:43.238Z,1030.85
2018-12-25T10:34:52.713Z,1030.85
2018-12-25T10:36:01.908Z,1030.85
2018-12-25T10:37:11.370Z,1030.87
2018-12-25T10:38:20.814Z,1030.9
2018-12-25T10:39:29.761Z,1030.9
2018-12-25T10:40:39.194Z,1030.86
2018-12-25T10:41:48.891Z,1030.81
2018-12-25T10:42:58.340Z,1030.79
2018-12-25T10:44:07.530Z,1030.78
2018-12-25T10:45:16.720Z,1030.75
2018-12-25T10:46:25.658Z,1030.74
2018-12-25T10:47:35.671Z,1030.77
2018-12-25T10:48:44.687Z,1030.77
2018-12-25T10:49:54.123Z,1030.72
2018-12-25T10:51:02.813Z,1030.79
2018-12-25T10:52:12.059Z,1030.8
2018-12-25T10:53:21.284Z,1030.79
2018-12-25T10:54:30.504Z,1030.79
2018-12-25T10:55:39.419Z,1030.8
2018-12-25T10:56:48.415Z,1030.79
2018-12-25T10:57:57.603Z,1030.83
2018-12-25T10:59:07.223Z,1030.82
2018-12-25T11:00:16.912Z,1030.85
2018-12-25T11:01:26.745Z,1030.87
2018-12-25T11:02:35.992Z,1030.87
2018-12-25T11:03:45.438Z,1030.88
2018-12-25T11:04:54.915Z,1030.94
2018-12-25T11:06:04.104Z,1030.93
2018-12-25T11:07:13.040Z,1030.97
2018-12-25T11:08:21.973Z,1030.97
2018-12-25T11:09:31.411Z,1030.95
2018-12-25T11:10:41.206Z,1031
2018-12-25T11:11:50.897Z,1030.93
2018-12-25T11:12:59.887Z,1030.93
2018-12-25T11:14:08.839Z,1030.91
2018-12-25T11:15:18.295Z,1030.94
2018-12-25T11:16:27.252Z,1030.93
2018-12-25T11:17:36.439Z,1030.89
2018-12-25T11:18:49.135Z,1030.9
2018-12-25T11:19:58.732Z,1030.9
2018-12-25T11:21:16.267Z,1030.93
2018-12-25T11:22:26.054Z,1030.91
2018-12-25T11:23:36.007Z,1030.86
2018-12-25T11:24:45.209Z,1030.91
2018-12-25T11:25:54.488Z,1030.87
2018-12-25T11:27:03.697Z,1030.88
2018-12-25T11:28:12.879Z,1030.91
2018-12-25T11:29:22.304Z,1030.93
2018-12-25T11:30:31.276Z,1030.92
2018-12-25T11:31:40.259Z,1030.89
2018-12-25T11:32:49.969Z,1030.92
2018-12-25T11:33:58.923Z,1030.91
2018-12-25T11:35:09.773Z,1030.87
2018-12-25T11:36:19.120Z,1030.86
2018-12-25T11:37:28.794Z,1030.85
2018-12-25T11:38:37.979Z,1030.78
2018-12-25T11:39:47.158Z,1030.83
2018-12-25T11:40:56.995Z,1030.78
2018-12-25T11:42:06.222Z,1030.81
2018-12-25T11:43:15.403Z,1030.77
2018-12-25T11:44:24.828Z,1030.81
2018-12-25T11:45:34.262Z,1030.82
2018-12-25T11:46:43.815Z,1030.78
2018-12-25T11:47:53.257Z,1030.8
2018-12-25T11:49:02.439Z,1030.76
2018-12-25T11:50:11.640Z,1030.72
2018-12-25T11:51:21.085Z,1030.71
2018-12-25T11:52:30.516Z,1030.7
2018-12-25T11:53:39.226Z,1030.71
2018-12-25T11:54:48.676Z,1030.72
2018-12-25T11:55:58.129Z,1030.74
2018-12-25T11:57:07.579Z,1030.66
2018-12-25T11:58:17.260Z,1030.66
2018-12-25T11:59:27.288Z,1030.65
2018-12-25T12:00:36.220Z,1030.66
2018-12-25T12:01:45.926Z,1030.64
2018-12-25T12:02:55.611Z,1030.61
2018-12-25T12:04:05.062Z,1030.65
2018-12-25T12:05:14.261Z,1030.61
2018-12-25T12:06:23.443Z,1030.57
2018-12-25T12:07:32.895Z,1030.59
2018-12-25T12:08:42.108Z,1030.55
2018-12-25T12:09:51.289Z,1030.55
2018-12-25T12:11:00.707Z,1030.56
2018-12-25T12:12:09.895Z,1030.59
2018-12-25T12:13:19.321Z,1030.59
2018-12-25T12:14:28.765Z,1030.59
2018-12-25T12:15:37.964Z,1030.57
2018-12-25T12:16:46.903Z,1030.59
2018-12-25T12:17:55.878Z,1030.55
2018-12-25T12:19:05.324Z,1030.56
2018-12-25T12:20:15.026Z,1030.52
2018-12-25T12:21:24.710Z,1030.55
2018-12-25T12:22:37.023Z,1030.54
2018-12-25T12:23:46.382Z,1030.58
2018-12-25T12:24:55.332Z,1030.53
2018-12-25T12:26:04.877Z,1030.57
2018-12-25T12:27:14.320Z,1030.51
2018-12-25T12:28:23.768Z,1030.55
2018-12-25T12:29:33.483Z,1030.58
2018-12-25T12:30:43.523Z,1030.56
2018-12-25T12:31:53.198Z,1030.59
2018-12-25T12:33:02.629Z,1030.61
2018-12-25T12:34:12.051Z,1030.61
2018-12-25T12:35:21.233Z,1030.64
2018-12-25T12:36:30.420Z,1030.61
2018-12-25T12:37:39.605Z,1030.57
2018-12-25T12:38:49.360Z,1030.63
2018-12-25T12:39:58.804Z,1030.63
2018-12-25T12:41:08.011Z,1030.59
2018-12-25T12:42:17.952Z,1030.58
2018-12-25T12:43:27.378Z,1030.63
2018-12-25T12:44:36.329Z,1030.63
2018-12-25T12:45:45.759Z,1030.59
2018-12-25T12:46:54.960Z,1030.63
2018-12-25T12:48:04.926Z,1030.63
2018-12-25T12:49:14.379Z,1030.65
2018-12-25T12:50:23.337Z,1030.7
2018-12-25T12:51:32.526Z,1030.73
2018-12-25T12:52:45.585Z,1030.75
2018-12-25T12:53:55.359Z,1030.7
2018-12-25T12:55:04.774Z,1030.68
2018-12-25T12:56:14.237Z,1030.68
2018-12-25T12:57:23.662Z,1030.72
2018-12-25T12:58:32.874Z,1030.76
2018-12-25T12:59:42.603Z,1030.71
2018-12-25T13:00:51.827Z,1030.71
2018-12-25T13:02:01.532Z,1030.68
2018-12-25T13:03:11.233Z,1030.67
2018-12-25T13:04:20.477Z,1030.66
2018-12-25T13:05:29.668Z,1030.67
2018-12-25T13:06:38.862Z,1030.62
2018-12-25T13:07:48.642Z,1030.61
2018-12-25T13:08:58.126Z,1030.65
2018-12-25T13:10:07.096Z,1030.69
2018-12-25T13:11:17.057Z,1030.68
2018-12-25T13:12:26.512Z,1030.67
2018-12-25T13:13:35.961Z,1030.65
2018-12-25T13:14:44.884Z,1030.69
2018-12-25T13:15:54.335Z,1030.7
2018-12-25T13:17:03.774Z,1030.71
2018-12-25T13:18:12.954Z,1030.69
2018-12-25T13:19:22.651Z,1030.72
2018-12-25T13:20:32.099Z,1030.74
2018-12-25T13:21:41.526Z,1030.75
2018-12-25T13:22:54.140Z,1030.71
2018-12-25T13:24:03.887Z,1030.75
2018-12-25T13:25:13.574Z,1030.76
2018-12-25T13:26:22.774Z,1030.73
2018-12-25T13:27:32.207Z,1030.71
2018-12-25T13:28:41.653Z,1030.7
2018-12-25T13:29:51.587Z,1030.75
2018-12-25T13:31:01.041Z,1030.71
2018-12-25T13:32:10.226Z,1030.77
2018-12-25T13:33:19.515Z,1030.76
2018-12-25T13:34:28.449Z,1030.71
2018-12-25T13:35:38.394Z,1030.72
2018-12-25T13:36:47.328Z,1030.74
2018-12-25T13:37:56.023Z,1030.71
2018-12-25T13:39:05.465Z,1030.75
2018-12-25T13:40:14.437Z,1030.71
2018-12-25T13:41:23.609Z,1030.72
2018-12-25T13:42:33.042Z,1030.73
2018-12-25T13:43:42.252Z,1030.73
2018-12-25T13:44:51.690Z,1030.73
2018-12-25T13:46:01.363Z,1030.69
2018-12-25T13:47:12.494Z,1030.77
2018-12-25T13:48:22.387Z,1030.7
2018-12-25T13:49:31.595Z,1030.68
2018-12-25T13:50:40.783Z,1030.67
2018-12-25T13:51:50.488Z,1030.66
2018-12-25T13:53:02.860Z,1030.65
2018-12-25T13:54:12.236Z,1030.68
2018-12-25T13:55:21.924Z,1030.64
2018-12-25T13:56:31.597Z,1030.67
2018-12-25T13:57:41.171Z,1030.67
2018-12-25T13:58:50.101Z,1030.66
2018-12-25T13:59:59.304Z,1030.68
2018-12-25T14:01:08.300Z,1030.71
2018-12-25T14:02:17.260Z,1030.7
2018-12-25T14:03:26.702Z,1030.68
2018-12-25T14:04:35.879Z,1030.66